Time;durP1;ratioP1;P1;durP2;ratioP2;P2;SDS_P1;SDS_P2;PMS_P1;PMS_P2;Temp;Humidity;BMP_temperature;BMP_pressure;BME280_temperature;BME280_humidity;BME280_pressure;Samples;Min_cycle;Max_cycle;Signal;HPM_P1;HPM_P2
2022/01/30 00:01:35;;;;;;;1.65;1.27;;;6.90;99.90;;;;;;5053582;28;20075;-78
2022/01/30 00:04:00;;;;;;;2.13;1.10;;;7.20;99.90;;;;;;5052846;28;20021;-78
2022/01/30 00:06:26;;;;;;;1.42;1.00;;;6.70;99.90;;;;;;5002874;28;20032;-78
2022/01/30 00:08:52;;;;;;;1.95;1.27;;;8.60;99.90;;;;;;5034997;28;20592;-78
2022/01/30 00:11:24;;;;;;;1.70;1.23;;;6.70;99.90;;;;;;5031272;28;20036;-78
2022/01/30 00:13:50;;;;;;;1.92;1.27;;;6.70;99.90;;;;;;5033121;28;20036;-77
2022/01/30 00:16:18;;;;;;;2.85;1.52;;;6.60;99.90;;;;;;5035641;28;20041;-78
2022/01/30 00:24:08;;;;;;;2.70;1.48;;;6.50;99.90;;;;;;5037186;28;20389;-77
2022/01/30 00:26:36;;;;;;;1.75;1.23;;;6.60;99.90;;;;;;5034794;28;20025;-78
2022/01/30 00:29:03;;;;;;;1.77;1.23;;;6.60;99.90;;;;;;5052607;28;20087;-78
2022/01/30 00:31:29;;;;;;;1.70;1.15;;;6.70;99.90;;;;;;5053122;28;20014;-78
2022/01/30 00:33:55;;;;;;;1.77;1.33;;;6.60;99.90;;;;;;5034202;28;20041;-78
2022/01/30 00:36:20;;;;;;;2.13;1.23;;;6.50;99.90;;;;;;5052707;28;20025;-78
2022/01/30 00:38:46;;;;;;;3.47;1.73;;;6.50;99.90;;;;;;5033739;28;20061;-78
2022/01/30 00:41:12;;;;;;;2.83;1.30;;;6.50;99.90;;;;;;5052367;28;20153;-78
2022/01/30 00:43:38;;;;;;;2.95;1.65;;;6.60;99.90;;;;;;5036258;28;20037;-79
2022/01/30 00:46:04;;;;;;;1.73;1.40;;;6.60;99.90;;;;;;5038116;28;20028;-78
2022/01/30 00:48:29;;;;;;;1.98;1.38;;;6.60;99.90;;;;;;5038355;28;20663;-78
2022/01/30 00:50:55;;;;;;;1.92;1.63;;;6.30;99.90;;;;;;5038737;28;20037;-79
2022/01/30 00:53:21;;;;;;;2.55;1.40;;;6.50;99.90;;;;;;5034762;28;20078;-79
2022/01/30 00:55:46;;;;;;;3.53;1.80;;;6.40;99.90;;;;;;5067597;28;20040;-79
2022/01/30 00:58:12;;;;;;;1.95;1.35;;;7.00;99.90;;;;;;5078532;28;20039;-78
2022/01/30 01:00:39;;;;;;;2.00;1.30;;;6.30;99.90;;;;;;5064887;28;20029;-79
2022/01/30 01:03:06;;;;;;;2.13;1.27;;;6.50;99.90;;;;;;5066496;28;20370;-79
2022/01/30 01:05:34;;;;;;;2.08;1.38;;;6.30;99.90;;;;;;5059232;28;20020;-79
2022/01/30 01:08:08;;;;;;;3.45;1.50;;;6.50;99.90;;;;;;5042277;28;20508;-79
2022/01/30 01:10:42;;;;;;;2.17;1.30;;;6.40;99.90;;;;;;5057099;28;20116;-79
2022/01/30 01:23:54;;;;;;;3.75;1.42;;;6.60;99.90;;;;;;5057343;28;20036;-79
2022/01/30 01:26:21;;;;;;;2.00;1.30;;;6.20;99.90;;;;;;5057595;28;20051;-79
2022/01/30 01:28:47;;;;;;;2.97;1.50;;;6.20;99.90;;;;;;5021039;28;20053;-79
2022/01/30 01:31:13;;;;;;;2.53;1.33;;;6.70;99.90;;;;;;5056399;28;20402;-78
2022/01/30 01:36:18;;;;;;;2.00;1.45;;;5.90;99.90;;;;;;5040037;28;20056;-78
2022/01/30 01:38:44;;;;;;;3.15;1.50;;;7.60;99.90;;;;;;5037921;28;20029;-78
2022/01/30 01:41:11;;;;;;;2.95;1.23;;;7.40;99.90;;;;;;5021676;28;20037;-78
2022/01/30 01:43:36;;;;;;;1.70;1.23;;;6.50;99.90;;;;;;5022381;28;20028;-78
2022/01/30 01:46:03;;;;;;;2.72;1.60;;;6.00;99.90;;;;;;5021956;28;20075;-79
2022/01/30 01:48:34;;;;;;;2.30;1.70;;;6.30;99.90;;;;;;5056447;28;20048;-79
2022/01/30 01:51:15;;;;;;;2.53;1.30;;;6.30;99.90;;;;;;5058263;28;20635;-78
2022/01/30 01:53:41;;;;;;;3.63;1.80;;;6.10;99.90;;;;;;5043659;28;20113;-78
2022/01/30 01:56:07;;;;;;;4.22;1.90;;;6.20;99.90;;;;;;5040656;28;20052;-77
2022/01/30 01:58:32;;;;;;;2.50;1.52;;;6.20;99.90;;;;;;5057382;28;20037;-78
2022/01/30 02:00:59;;;;;;;3.47;1.70;;;8.20;99.90;;;;;;5041255;28;20108;-79
2022/01/30 02:03:26;;;;;;;2.08;1.50;;;6.10;99.90;;;;;;5042406;28;20035;-78
2022/01/30 02:05:56;;;;;;;2.30;1.58;;;7.10;99.90;;;;;;5063099;28;20040;-78
2022/01/30 02:11:35;;;;;;;1.90;1.52;;;6.30;99.90;;;;;;5021892;28;20045;-79
2022/01/30 02:14:22;;;;;;;2.30;1.63;;;6.50;99.90;;;;;;5039614;28;20113;-79
2022/01/30 02:27:37;;;;;;;2.20;1.48;;;6.40;99.90;;;;;;5061335;28;20048;-77
2022/01/30 02:30:19;;;;;;;3.60;1.75;;;6.20;99.90;;;;;;5042101;28;20029;-77
2022/01/30 02:32:47;;;;;;;1.95;1.25;;;6.50;99.90;;;;;;5046265;28;20029;-78
2022/01/30 02:35:13;;;;;;;2.42;1.58;;;6.30;99.90;;;;;;5062684;28;20025;-78
2022/01/30 02:37:38;;;;;;;2.65;1.35;;;7.10;99.90;;;;;;5041142;28;20523;-78
2022/01/30 02:40:09;;;;;;;1.90;1.40;;;6.20;99.90;;;;;;5054186;28;20032;-78
2022/01/30 02:42:38;;;;;;;2.05;1.40;;;6.20;99.90;;;;;;5054166;28;20112;-77
2022/01/30 02:45:07;;;;;;;1.60;1.10;;;6.20;99.90;;;;;;5037498;28;20107;-78
2022/01/30 02:52:42;;;;;;;1.50;0.93;;;6.30;99.90;;;;;;5054648;28;20095;-78
2022/01/30 02:55:09;;;;;;;1.52;1.23;;;7.20;99.90;;;;;;5037422;28;20107;-78
2022/01/30 02:57:35;;;;;;;2.17;1.40;;;6.30;99.90;;;;;;5055668;28;20026;-78
2022/01/30 03:00:01;;;;;;;1.83;1.10;;;6.30;99.90;;;;;;5054148;28;20083;-77
2022/01/30 03:02:26;;;;;;;2.38;1.13;;;6.30;99.90;;;;;;5035502;28;20032;-78
2022/01/30 03:04:52;;;;;;;1.90;1.00;;;8.30;99.90;;;;;;5053211;28;20087;-78
2022/01/30 03:07:17;;;;;;;1.50;1.17;;;6.60;99.90;;;;;;5037238;28;20071;-77
2022/01/30 03:09:43;;;;;;;2.70;1.40;;;6.40;99.90;;;;;;5029058;28;20032;-77
2022/01/30 03:12:09;;;;;;;1.95;1.20;;;6.40;99.90;;;;;;5031049;28;20032;-77
2022/01/30 03:14:35;;;;;;;1.73;1.23;;;6.40;99.90;;;;;;5049887;28;20051;-78
2022/01/30 03:17:00;;;;;;;1.75;1.13;;;6.60;99.90;;;;;;5051514;28;20093;-78
2022/01/30 03:19:26;;;;;;;1.92;1.20;;;6.40;99.90;;;;;;5068992;28;20040;-78
2022/01/30 03:21:52;;;;;;;2.95;1.42;;;7.70;99.90;;;;;;5050713;28;20066;-76
2022/01/30 03:24:17;;;;;;;2.28;1.50;;;6.40;99.90;;;;;;5071791;28;20089;-76
2022/01/30 03:26:43;;;;;;;3.15;1.23;;;8.00;99.90;;;;;;5053602;28;20061;-78
2022/01/30 03:29:09;;;;;;;1.90;1.27;;;6.40;99.90;;;;;;5037103;28;20021;-77
2022/01/30 03:31:38;;;;;;;1.50;1.25;;;6.40;99.90;;;;;;5054711;28;20005;-77
2022/01/30 03:34:07;;;;;;;2.17;1.25;;;7.40;99.90;;;;;;5066265;28;20025;-77
2022/01/30 03:36:33;;;;;;;2.15;1.13;;;6.60;99.90;;;;;;5072595;28;20056;-77
2022/01/30 03:38:58;;;;;;;3.30;1.15;;;8.20;99.90;;;;;;5051098;28;20036;-78
2022/01/30 03:41:27;;;;;;;2.65;1.23;;;6.50;99.90;;;;;;5069901;28;20453;-77
2022/01/30 03:43:53;;;;;;;1.33;0.95;;;6.30;99.90;;;;;;5053252;28;20052;-77
2022/01/30 03:46:20;;;;;;;2.45;1.30;;;6.40;99.90;;;;;;5054775;28;20112;-76
2022/01/30 03:48:46;;;;;;;1.63;1.17;;;6.40;99.90;;;;;;5072605;28;20029;-77
2022/01/30 03:51:12;;;;;;;1.35;1.10;;;6.30;99.90;;;;;;5065462;28;20046;-77
2022/01/30 03:53:38;;;;;;;1.98;1.17;;;6.20;99.90;;;;;;5061019;28;20029;-78
2022/01/30 03:56:04;;;;;;;2.20;1.30;;;6.20;99.90;;;;;;5061833;28;20167;-78
2022/01/30 03:58:32;;;;;;;2.42;1.40;;;6.50;99.90;;;;;;5041898;28;20473;-78
2022/01/30 04:00:58;;;;;;;1.23;0.90;;;6.30;99.90;;;;;;5043200;28;20178;-78
2022/01/30 04:03:23;;;;;;;2.58;1.27;;;6.20;99.90;;;;;;5043702;28;20620;-78
2022/01/30 04:05:49;;;;;;;2.45;1.58;;;7.00;99.90;;;;;;5043005;28;20035;-77
2022/01/30 04:08:15;;;;;;;3.25;1.30;;;6.30;99.90;;;;;;5062140;28;20017;-78
2022/01/30 04:10:41;;;;;;;1.75;1.20;;;7.30;99.90;;;;;;5043353;28;20489;-78
2022/01/30 04:13:06;;;;;;;2.95;1.70;;;6.20;99.90;;;;;;5060750;28;20021;-78
2022/01/30 04:15:32;;;;;;;2.00;1.00;;;6.30;99.90;;;;;;5043372;28;20029;-78
2022/01/30 04:18:00;;;;;;;2.05;1.30;;;6.30;99.90;;;;;;5027096;28;20409;-78
2022/01/30 04:20:26;;;;;;;3.00;1.60;;;6.30;99.90;;;;;;5057949;28;20024;-78
2022/01/30 04:22:51;;;;;;;2.58;1.58;;;6.30;99.90;;;;;;5040039;28;20367;-79
2022/01/30 04:25:17;;;;;;;2.38;1.50;;;6.30;99.90;;;;;;5024509;28;20033;-78
2022/01/30 04:27:42;;;;;;;1.63;1.08;;;6.30;99.90;;;;;;5047830;28;20079;-78
2022/01/30 04:30:10;;;;;;;1.98;1.13;;;6.20;99.90;;;;;;5040625;28;20478;-78
2022/01/30 04:32:41;;;;;;;2.25;1.63;;;6.10;99.90;;;;;;5040488;28;20523;-78
2022/01/30 04:35:13;;;;;;;4.32;1.60;;;6.10;99.90;;;;;;5009695;28;20036;-78
2022/01/30 04:38:09;;;;;;;1.75;1.33;;;6.00;99.90;;;;;;5041378;28;20087;-78
2022/01/30 04:56:55;;;;;;;3.22;1.73;;;5.80;99.90;;;;;;5041889;28;20033;-79
2022/01/30 05:02:13;;;;;;;5.88;2.35;;;5.40;99.90;;;;;;5050421;28;20040;-78
2022/01/30 05:09:31;;;;;;;4.22;2.35;;;5.70;99.90;;;;;;5038819;28;20021;-78
2022/01/30 05:11:56;;;;;;;5.20;3.00;;;5.80;99.90;;;;;;5038844;28;20044;-77
2022/01/30 05:14:25;;;;;;;2.85;1.95;;;5.60;99.90;;;;;;5039392;28;20444;-78
2022/01/30 05:16:51;;;;;;;3.42;2.58;;;5.60;99.90;;;;;;5038333;28;20079;-78
2022/01/30 05:19:17;;;;;;;9.93;2.53;;;5.60;99.90;;;;;;5038527;28;20432;-78
2022/01/30 05:21:43;;;;;;;4.35;2.50;;;5.60;99.90;;;;;;5023148;28;20044;-78
2022/01/30 05:24:09;;;;;;;3.60;2.25;;;5.60;99.90;;;;;;5056378;28;20545;-78
2022/01/30 05:26:40;;;;;;;5.57;3.17;;;5.50;99.90;;;;;;5056404;28;20041;-78
2022/01/30 05:29:06;;;;;;;8.50;2.70;;;5.50;99.90;;;;;;5038179;28;20024;-78
2022/01/30 05:31:33;;;;;;;5.18;2.53;;;5.50;99.90;;;;;;5056034;28;20028;-78
2022/01/30 05:33:59;;;;;;;5.65;2.85;;;7.30;99.90;;;;;;5074108;23;20125;-79
2022/01/30 05:36:24;;;;;;;3.95;2.50;;;5.30;99.90;;;;;;5063472;28;20021;-79
2022/01/30 05:38:51;;;;;;;4.63;2.55;;;5.30;99.90;;;;;;5066872;28;20354;-79
2022/01/30 05:41:17;;;;;;;4.00;2.28;;;5.30;99.90;;;;;;5065341;28;20033;-79
2022/01/30 05:43:45;;;;;;;5.78;2.90;;;5.20;99.90;;;;;;5065692;28;20029;-79
2022/01/30 05:46:16;;;;;;;6.38;2.65;;;5.40;99.90;;;;;;5065189;28;20013;-79
2022/01/30 05:48:42;;;;;;;5.75;3.72;;;5.40;99.90;;;;;;5063281;28;20055;-79
2022/01/30 05:51:08;;;;;;;7.35;2.90;;;5.40;99.90;;;;;;5064302;28;20025;-78
2022/01/30 05:53:34;;;;;;;6.25;3.13;;;5.40;99.90;;;;;;5057285;28;20155;-78
2022/01/30 05:55:59;;;;;;;6.85;3.10;;;5.50;99.90;;;;;;5055346;28;20037;-78
2022/01/30 05:58:25;;;;;;;6.10;2.88;;;5.40;99.90;;;;;;5055402;28;20435;-78
2022/01/30 06:00:51;;;;;;;4.25;2.75;;;5.40;99.90;;;;;;5056296;28;20052;-79
2022/01/30 06:03:16;;;;;;;6.40;3.20;;;5.40;99.90;;;;;;5056189;28;20096;-79
2022/01/30 06:05:45;;;;;;;6.50;2.60;;;5.30;99.90;;;;;;5053901;28;20021;-79
2022/01/30 06:08:15;;;;;;;5.60;3.53;;;5.30;99.90;;;;;;5054623;28;20167;-79
2022/01/30 06:10:41;;;;;;;5.32;3.22;;;5.90;99.90;;;;;;5052918;28;20096;-79
2022/01/30 06:13:06;;;;;;;5.28;3.20;;;5.20;99.90;;;;;;5054067;28;20503;-80
2022/01/30 06:15:32;;;;;;;9.95;3.03;;;5.30;99.90;;;;;;5052916;28;20489;-77
2022/01/30 06:17:58;;;;;;;6.40;2.97;;;5.40;99.90;;;;;;5053420;28;20060;-78
2022/01/30 06:20:23;;;;;;;5.40;3.08;;;5.50;99.90;;;;;;5051704;28;20079;-77
2022/01/30 06:22:49;;;;;;;7.03;2.90;;;5.50;99.90;;;;;;5053258;28;20053;-77
2022/01/30 06:25:15;;;;;;;4.43;2.42;;;5.40;99.90;;;;;;5051293;28;20553;-77
2022/01/30 06:27:40;;;;;;;8.15;3.00;;;5.40;99.90;;;;;;5053835;28;20033;-79
2022/01/30 06:30:08;;;;;;;8.32;2.67;;;5.60;99.90;;;;;;5051883;28;20031;-77
2022/01/30 06:32:34;;;;;;;7.72;2.50;;;5.50;99.90;;;;;;5069392;28;20032;-77
2022/01/30 06:35:00;;;;;;;5.60;2.80;;;5.40;99.90;;;;;;5073486;28;20035;-80
2022/01/30 06:37:26;;;;;;;8.95;3.28;;;5.30;99.90;;;;;;5072761;28;20107;-77
2022/01/30 06:39:51;;;;;;;5.60;2.90;;;5.20;99.90;;;;;;5073139;28;20080;-80
2022/01/30 06:42:17;;;;;;;6.93;3.03;;;7.60;99.90;;;;;;5071307;28;20115;-78
2022/01/30 06:44:43;;;;;;;6.97;2.80;;;5.30;99.90;;;;;;5072732;28;20167;-80
2022/01/30 06:47:10;;;;;;;8.85;3.30;;;5.30;99.90;;;;;;5074915;28;20040;-77
2022/01/30 06:49:36;;;;;;;5.47;3.50;;;5.30;99.90;;;;;;5067999;28;20493;-80
2022/01/30 06:52:01;;;;;;;4.75;2.88;;;5.30;99.90;;;;;;5053322;28;20064;-76
2022/01/30 06:54:27;;;;;;;8.80;3.20;;;5.20;99.90;;;;;;5054525;28;20103;-78
2022/01/30 06:56:53;;;;;;;5.38;2.80;;;5.20;99.90;;;;;;5051456;28;20103;-78
2022/01/30 06:59:18;;;;;;;5.93;3.33;;;5.20;99.90;;;;;;5052734;28;20029;-79
2022/01/30 07:01:44;;;;;;;8.68;3.20;;;5.00;99.90;;;;;;5051601;28;20059;-77
2022/01/30 07:04:10;;;;;;;6.85;3.53;;;5.20;99.90;;;;;;5053381;28;20134;-78
2022/01/30 07:06:35;;;;;;;5.93;3.65;;;5.00;99.90;;;;;;5053456;28;20044;-78
2022/01/30 07:09:02;;;;;;;6.32;3.58;;;5.00;99.90;;;;;;5053307;28;20032;-78
2022/01/30 07:11:27;;;;;;;6.28;3.75;;;5.50;99.90;;;;;;5053437;28;20500;-78
2022/01/30 07:13:53;;;;;;;7.72;3.50;;;4.90;99.90;;;;;;5053170;28;20029;-78
2022/01/30 07:16:18;;;;;;;11.30;4.53;;;6.30;99.90;;;;;;5051380;28;20033;-78
2022/01/30 07:18:44;;;;;;;6.95;3.95;;;5.10;99.90;;;;;;5052150;28;20025;-77
2022/01/30 07:21:10;;;;;;;6.00;4.15;;;4.80;99.90;;;;;;5053907;28;20156;-79
2022/01/30 07:23:40;;;;;;;8.32;4.15;;;4.70;99.90;;;;;;5053520;28;20511;-79
2022/01/30 07:26:06;;;;;;;7.72;4.15;;;6.00;99.90;;;;;;5053684;28;20122;-79
2022/01/30 07:28:32;;;;;;;8.40;4.40;;;4.60;99.90;;;;;;5053499;28;20396;-79
2022/01/30 07:30:57;;;;;;;8.40;4.30;;;4.70;99.90;;;;;;5051201;28;20389;-78
2022/01/30 07:33:23;;;;;;;7.30;4.13;;;4.60;99.90;;;;;;5051814;28;20041;-78
2022/01/30 07:35:53;;;;;;;14.00;4.85;;;4.60;99.90;;;;;;5051008;28;20051;-77
2022/01/30 07:38:20;;;;;;;11.40;4.40;;;6.20;99.90;;;;;;5052059;28;20045;-79
2022/01/30 07:40:46;;;;;;;8.55;4.32;;;4.60;99.90;;;;;;5052026;28;20029;-77
2022/01/30 07:43:12;;;;;;;6.95;4.57;;;4.60;99.90;;;;;;5052494;28;20025;-79
2022/01/30 07:45:37;;;;;;;9.35;5.00;;;6.60;99.90;;;;;;5052430;28;20029;-77
2022/01/30 07:48:03;;;;;;;11.30;4.97;;;4.60;99.90;;;;;;5035089;28;20025;-78
2022/01/30 07:50:29;;;;;;;9.48;4.80;;;4.70;99.90;;;;;;5050710;28;20574;-78
2022/01/30 07:52:55;;;;;;;9.73;4.43;;;4.80;99.90;;;;;;5051896;28;20040;-78
2022/01/30 07:55:20;;;;;;;22.23;6.55;;;4.70;99.90;;;;;;5051984;28;20040;-78
2022/01/30 07:57:46;;;;;;;9.70;5.57;;;4.80;99.90;;;;;;5038215;28;20021;-77
2022/01/30 08:00:13;;;;;;;9.88;5.32;;;5.00;99.90;;;;;;5054998;28;20128;-78
2022/01/30 08:02:38;;;;;;;9.70;5.32;;;5.00;99.90;;;;;;5055122;28;20068;-78
2022/01/30 08:05:05;;;;;;;10.73;5.03;;;6.50;99.90;;;;;;5055593;28;20052;-78
2022/01/30 08:07:31;;;;;;;7.43;4.43;;;5.20;99.90;;;;;;5054632;28;20441;-79
2022/01/30 08:09:57;;;;;;;7.65;3.70;;;5.30;99.90;;;;;;5055930;28;20033;-79
2022/01/30 08:12:23;;;;;;;9.52;3.85;;;5.50;99.90;;;;;;5059878;28;20427;-79
2022/01/30 08:14:49;;;;;;;9.93;3.58;;;6.80;99.90;;;;;;5055664;28;20029;-79
2022/01/30 08:17:22;;;;;;;4.20;3.28;;;7.20;99.90;;;;;;5054519;28;20270;-79
2022/01/30 08:19:49;;;;;;;8.45;3.33;;;6.20;99.90;;;;;;5055864;28;20032;-79
2022/01/30 08:22:15;;;;;;;7.38;3.78;;;5.70;99.90;;;;;;5056006;28;20092;-79
2022/01/30 08:24:40;;;;;;;8.70;3.47;;;5.70;99.90;;;;;;5055615;28;20079;-78
2022/01/30 08:27:07;;;;;;;11.10;3.72;;;5.80;99.90;;;;;;5057184;28;20397;-78
2022/01/30 08:29:33;;;;;;;6.20;3.20;;;5.70;99.90;;;;;;5057075;28;20029;-79
2022/01/30 08:31:59;;;;;;;12.90;3.67;;;5.60;99.90;;;;;;5062761;28;20021;-78
2022/01/30 08:34:26;;;;;;;7.28;3.30;;;7.30;99.90;;;;;;5061997;28;20036;-78
2022/01/30 08:36:51;;;;;;;8.75;3.00;;;6.60;99.90;;;;;;5061647;28;20021;-78
2022/01/30 08:39:17;;;;;;;8.70;2.90;;;5.90;99.90;;;;;;5060342;28;20021;-78
2022/01/30 08:41:43;;;;;;;6.13;2.90;;;6.50;99.90;;;;;;5063013;28;20025;-77
2022/01/30 08:44:09;;;;;;;9.90;3.38;;;6.60;99.90;;;;;;5061328;28;20128;-77
2022/01/30 08:46:34;;;;;;;5.78;2.45;;;6.50;99.90;;;;;;5060086;28;20100;-78
2022/01/30 08:49:00;;;;;;;7.78;3.38;;;6.30;99.90;;;;;;5072472;28;20063;-77
2022/01/30 08:51:26;;;;;;;8.50;3.03;;;8.50;99.90;;;;;;5068698;28;20127;-79
2022/01/30 08:53:52;;;;;;;10.07;3.65;;;7.00;99.90;;;;;;5056857;28;20446;-78
2022/01/30 08:56:18;;;;;;;13.70;3.30;;;6.20;99.90;;;;;;5055385;28;20167;-78
2022/01/30 08:58:44;;;;;;;9.02;2.78;;;6.20;99.90;;;;;;5056211;28;20028;-78
2022/01/30 09:01:12;;;;;;;7.70;3.10;;;6.30;99.90;;;;;;5056070;28;20033;-78
2022/01/30 09:03:38;;;;;;;11.07;3.03;;;6.10;99.90;;;;;;5055601;28;20025;-79
2022/01/30 09:06:03;;;;;;;10.15;2.92;;;6.20;99.90;;;;;;5055571;28;20032;-79
2022/01/30 09:08:29;;;;;;;8.38;2.85;;;6.60;99.90;;;;;;5055531;28;20594;-79
2022/01/30 09:10:57;;;;;;;7.00;2.40;;;6.40;99.90;;;;;;5056246;28;20053;-78
2022/01/30 09:13:23;;;;;;;6.85;2.75;;;7.80;99.90;;;;;;5038789;28;20112;-79
2022/01/30 09:15:51;;;;;;;6.07;2.10;;;7.00;99.90;;;;;;5055918;28;20036;-78
2022/01/30 09:18:17;;;;;;;7.65;2.20;;;8.30;99.90;;;;;;5056853;28;20025;-79
2022/01/30 09:20:43;;;;;;;10.40;2.25;;;10.00;99.90;;;;;;5055929;28;20215;-77
2022/01/30 09:23:11;;;;;;;6.20;2.40;;;8.70;99.90;;;;;;5056827;28;20508;-79
2022/01/30 09:25:37;;;;;;;9.68;2.20;;;7.70;99.90;;;;;;5055586;28;20366;-79
2022/01/30 09:28:03;;;;;;;9.38;2.80;;;9.50;99.90;;;;;;5055037;28;20021;-79
2022/01/30 09:30:29;;;;;;;11.55;2.28;;;8.20;99.90;;;;;;5066028;28;20025;-78
2022/01/30 09:32:55;;;;;;;12.00;3.15;;;9.10;99.90;;;;;;5090603;28;20075;-78
2022/01/30 09:35:21;;;;;;;10.23;2.40;;;9.50;99.90;;;;;;5087647;28;20044;-79
2022/01/30 09:37:47;;;;;;;13.68;2.13;;;12.30;99.90;;;;;;5077505;28;20039;-79
2022/01/30 09:40:17;;;;;;;7.50;1.92;;;12.40;99.90;;;;;;5058844;28;20048;-79
2022/01/30 09:42:46;;;;;;;13.15;2.55;;;;;;;;;;5055867;28;20025;-80
2022/01/30 09:45:13;;;;;;;11.60;2.97;;;;;;;;;;5055649;28;20036;-80
2022/01/30 09:47:40;;;;;;;8.43;1.92;;;;;;;;;;5055910;28;20029;-79
2022/01/30 09:50:07;;;;;;;9.98;1.42;;;;;;;;;;5055064;28;20477;-80
2022/01/30 09:52:33;;;;;;;11.10;3.13;;;;;;;;;;5055661;28;20049;-79
2022/01/30 09:54:59;;;;;;;10.50;2.15;;;;;;;;;;5055108;28;20040;-79
2022/01/30 09:57:26;;;;;;;16.33;2.67;;;;;;;;;;5053408;28;20036;-79
2022/01/30 09:59:52;;;;;;;15.23;4.10;;;;;;;;;;5052817;28;20402;-79
2022/01/30 10:02:18;;;;;;;12.10;2.00;;;;;;;;;;5055587;28;20048;-79
2022/01/30 10:04:44;;;;;;;11.50;2.05;;;11.30;99.90;;;;;;5054893;28;20029;-79
2022/01/30 10:07:16;;;;;;;8.45;2.05;;;;;;;;;;5053220;28;20028;-79
2022/01/30 10:09:48;;;;;;;10.48;1.98;;;;;;;;;;5054400;28;20052;-79
2022/01/30 10:12:23;;;;;;;12.13;2.55;;;;;;;;;;5038393;28;20044;-80
2022/01/30 10:14:52;;;;;;;13.63;2.28;;;;;;;;;;5054363;28;20102;-79
2022/01/30 10:17:25;;;;;;;12.82;2.15;;;;;;;;;;5054579;28;20389;-80
2022/01/30 10:20:00;;;;;;;9.77;2.38;;;;;;;;;;5053203;28;20033;-79
2022/01/30 10:22:26;;;;;;;8.43;1.92;;;;;;;;;;5053805;28;20484;-80
2022/01/30 10:24:53;;;;;;;7.35;1.83;;;;;;;;;;5052955;28;20036;-79
2022/01/30 10:27:18;;;;;;;11.25;2.20;;;;;;;;;;5053150;28;20045;-79
2022/01/30 10:29:44;;;;;;;10.35;1.92;;;;;;;;;;5053758;28;20104;-79
2022/01/30 10:32:11;;;;;;;14.82;2.83;;;;;;;;;;5066971;28;20024;-79
2022/01/30 10:34:38;;;;;;;15.90;2.50;;;;;;;;;;5072957;28;20037;-79
2022/01/30 10:37:14;;;;;;;11.70;2.47;;;;;;;;;;5074153;28;20488;-79
2022/01/30 10:40:00;;;;;;;10.93;1.60;;;;;;;;;;5071624;28;20602;-79
2022/01/30 10:42:39;;;;;;;9.55;1.65;;;;;;;;;;5057412;28;20048;-79
2022/01/30 10:45:07;;;;;;;8.45;1.77;;;9.30;99.90;;;;;;5056858;28;20440;-79
2022/01/30 10:47:32;;;;;;;9.00;1.58;;;7.90;99.90;;;;;;5059033;28;20021;-80
2022/01/30 10:49:59;;;;;;;8.23;2.63;;;9.90;99.90;;;;;;5055706;28;20600;-80
2022/01/30 10:52:25;;;;;;;8.32;1.75;;;8.30;99.90;;;;;;5056517;28;20528;-79
2022/01/30 10:55:01;;;;;;;9.68;2.30;;;10.00;99.90;;;;;;5054124;28;20033;-80
2022/01/30 10:57:27;;;;;;;11.68;2.53;;;12.20;99.90;;;;;;5055638;28;20032;-80
2022/01/30 10:59:56;;;;;;;10.38;2.17;;;12.20;95.00;;;;;;5058693;28;20037;-80
2022/01/30 11:02:23;;;;;;;10.70;2.05;;;12.70;95.40;;;;;;5060868;28;20112;-80
2022/01/30 11:04:50;;;;;;;11.00;2.28;;;10.40;98.70;;;;;;5056479;28;20465;-81
2022/01/30 11:07:19;;;;;;;6.70;1.50;;;10.10;99.90;;;;;;5055847;28;20060;-79
2022/01/30 11:09:58;;;;;;;5.75;1.73;;;10.50;98.80;;;;;;5056090;28;20022;-79
2022/01/30 11:12:34;;;;;;;12.57;2.78;;;;;;;;;;5034488;28;20033;-80
2022/01/30 11:15:20;;;;;;;6.65;1.60;;;;;;;;;;5033509;28;20071;-79
2022/01/30 11:17:47;;;;;;;7.80;2.10;;;;;;;;;;5053101;28;20104;-80
2022/01/30 11:20:13;;;;;;;8.50;1.63;;;;;;;;;;5053027;28;20463;-79
2022/01/30 11:22:40;;;;;;;8.65;1.88;;;;;;;;;;5054116;28;20072;-79
2022/01/30 11:25:07;;;;;;;6.38;1.40;;;;;;;;;;5055640;28;20029;-79
2022/01/30 11:27:34;;;;;;;10.88;2.13;;;;;;;;;;5057766;28;20104;-81
2022/01/30 11:30:01;;;;;;;13.48;1.67;;;;;;;;;;5056972;28;20025;-80
2022/01/30 11:32:27;;;;;;;6.45;2.33;;;;;;;;;;5059331;28;20051;-79
2022/01/30 11:34:55;;;;;;;13.20;2.83;;;;;;;;;;5077969;22;20041;-79
2022/01/30 11:37:23;;;;;;;9.10;2.15;;;;;;;;;;5069011;28;20079;-80
2022/01/30 11:39:52;;;;;;;8.02;1.80;;;;;;;;;;5058736;28;20033;-81
2022/01/30 11:42:18;;;;;;;7.88;2.00;;;;;;;;;;5058724;28;20029;-78
2022/01/30 11:44:45;;;;;;;7.68;1.92;;;;;;;;;;5056507;28;20021;-80
2022/01/30 11:47:11;;;;;;;8.23;2.10;;;;;;;;;;5056484;28;20035;-80
2022/01/30 11:49:38;;;;;;;8.60;2.00;;;;;;;;;;5058585;28;20017;-80
2022/01/30 11:52:06;;;;;;;12.73;2.90;;;;;;;;;;5059655;28;20029;-79
2022/01/30 11:54:33;;;;;;;7.68;1.98;;;;;;;;;;5059351;28;20021;-80
2022/01/30 11:56:59;;;;;;;7.85;1.55;;;;;;;;;;5055603;28;20485;-78
2022/01/30 11:59:36;;;;;;;9.25;1.65;;;;;;;;;;5054491;28;20142;-77
2022/01/30 12:02:28;;;;;;;8.25;1.52;;;;;;;;;;5055667;28;20027;-78
2022/01/30 12:04:58;;;;;;;10.10;1.70;;;;;;;;;;5053976;28;20112;-79
2022/01/30 12:07:34;;;;;;;8.07;2.15;;;;;;;;;;5058255;28;20017;-78
2022/01/30 12:10:18;;;;;;;7.43;1.58;;;;;;;;;;5057022;28;20052;-80
2022/01/30 12:12:47;;;;;;;11.10;1.85;;;;;;;;;;5034938;28;20025;-77
2022/01/30 12:15:32;;;;;;;8.10;1.60;;;;;;;;;;5039592;28;20408;-77
2022/01/30 12:17:58;;;;;;;11.75;2.03;;;;;;;;;;5053445;28;20401;-78
2022/01/30 12:20:25;;;;;;;7.72;1.55;;;;;;;;;;5054188;28;20025;-77
2022/01/30 12:22:51;;;;;;;10.07;2.00;;;;;;;;;;5054852;28;20464;-76
2022/01/30 12:25:28;;;;;;;10.75;2.40;;;;;;;;;;5054305;28;20025;-77
2022/01/30 12:27:55;;;;;;;13.98;1.75;;;;;;;;;;5053438;28;20594;-77
2022/01/30 12:30:34;;;;;;;10.52;1.60;;;;;;;;;;5053768;28;20025;-78
2022/01/30 12:33:00;;;;;;;8.35;1.92;;;;;;;;;;5054517;28;20029;-76
2022/01/30 12:35:26;;;;;;;10.40;2.08;;;;;;;;;;5055595;28;20037;-77
2022/01/30 12:37:52;;;;;;;12.38;2.20;;;;;;;;;;5054869;28;20040;-77
2022/01/30 12:40:19;;;;;;;8.02;1.90;;;;;;;;;;5056994;28;20041;-78
2022/01/30 12:42:45;;;;;;;8.73;2.10;;;;;;;;;;5054745;28;20493;-78
2022/01/30 12:45:13;;;;;;;12.60;4.35;;;;;;;;;;5055316;28;20029;-78
2022/01/30 12:47:57;;;;;;;13.02;3.58;;;;;;;;;;5057136;28;20025;-79
2022/01/30 12:50:31;;;;;;;11.45;1.73;;;;;;;;;;5056857;28;20059;-79
2022/01/30 12:52:58;;;;;;;12.15;2.08;;;;;;;;;;5034725;28;20025;-78
2022/01/30 12:55:23;;;;;;;8.00;2.42;;;11.60;94.90;;;;;;5036645;28;20025;-79
2022/01/30 12:57:53;;;;;;;11.40;1.60;;;8.00;99.90;;;;;;5054588;28;20029;-79
2022/01/30 13:00:19;;;;;;;8.55;1.83;;;8.60;99.90;;;;;;5054160;28;20130;-78
2022/01/30 13:02:59;;;;;;;11.90;2.30;;;8.00;99.90;;;;;;5054175;28;20050;-78
2022/01/30 13:05:27;;;;;;;6.28;1.77;;;7.80;99.90;;;;;;5053956;28;20021;-78
2022/01/30 13:07:55;;;;;;;14.93;2.10;;;7.70;99.90;;;;;;5054150;28;20017;-77
2022/01/30 13:10:21;;;;;;;7.93;1.73;;;8.10;99.90;;;;;;5053705;28;20028;-79
2022/01/30 13:12:47;;;;;;;10.05;1.83;;;8.50;99.90;;;;;;5054024;28;20064;-78
2022/01/30 13:15:19;;;;;;;8.98;1.73;;;8.40;99.90;;;;;;5054631;28;20485;-81
2022/01/30 13:17:45;;;;;;;7.97;1.45;;;8.60;99.90;;;;;;5054966;28;20029;-78
2022/01/30 13:20:12;;;;;;;10.10;1.52;;;9.30;99.90;;;;;;5053536;28;20060;-79
2022/01/30 13:22:43;;;;;;;5.97;1.63;;;8.30;99.90;;;;;;5053844;28;20040;-79
2022/01/30 13:25:15;;;;;;;9.45;1.67;;;8.30;99.90;;;;;;5054349;28;20017;-78
2022/01/30 13:27:46;;;;;;;6.18;1.75;;;8.40;99.90;;;;;;5053982;28;20033;-79
2022/01/30 13:30:22;;;;;;;10.30;1.85;;;8.50;99.90;;;;;;5051471;28;20043;-78
2022/01/30 13:32:48;;;;;;;12.15;2.58;;;8.50;99.90;;;;;;5033640;28;20551;-78
2022/01/30 13:35:16;;;;;;;12.60;3.28;;;8.60;99.90;;;;;;5037590;28;20032;-81
2022/01/30 13:37:43;;;;;;;11.05;1.83;;;8.50;99.90;;;;;;5053339;28;20044;-80
2022/01/30 13:40:18;;;;;;;6.18;1.13;;;;;;;;;;5052432;28;20033;-79
2022/01/30 13:42:54;;;;;;;10.65;1.70;;;8.40;99.90;;;;;;5054079;28;20108;-80
2022/01/30 13:48:03;;;;;;;9.07;1.65;;;9.10;99.90;;;;;;5054460;28;20539;-79
2022/01/30 13:50:50;;;;;;;10.65;1.63;;;9.10;99.90;;;;;;5053173;28;20156;-78
2022/01/30 13:53:24;;;;;;;10.85;1.77;;;8.80;99.90;;;;;;5048412;28;20047;-79
2022/01/30 13:56:07;;;;;;;7.07;1.70;;;11.20;99.60;;;;;;5049859;28;20040;-78
2022/01/30 13:58:41;;;;;;;;;;;9.20;99.00;;;;;;5031213;28;20052;-79
2022/01/30 14:01:14;;;;;;;6.45;1.70;;;9.00;99.00;;;;;;5045584;28;19904;-78
2022/01/30 14:03:43;;;;;;;8.30;1.65;;;9.90;99.90;;;;;;5048579;28;20033;-78
2022/01/30 14:06:26;;;;;;;16.02;3.45;;;8.80;99.90;;;;;;5047161;28;20420;-78
2022/01/30 14:09:03;;;;;;;6.57;1.52;;;9.20;99.90;;;;;;5047766;28;20029;-78
2022/01/30 14:11:35;;;;;;;6.05;1.73;;;9.40;99.90;;;;;;5047936;28;20573;-78
2022/01/30 14:14:21;;;;;;;8.23;1.57;;;9.20;99.10;;;;;;5047159;28;20548;-81
2022/01/30 14:16:53;;;;;;;6.45;1.67;;;9.00;99.90;;;;;;5048381;28;20268;-79
2022/01/30 14:19:28;;;;;;;12.60;1.73;;;8.80;99.90;;;;;;5048387;28;20029;-79
2022/01/30 14:22:19;;;;;;;8.88;1.52;;;8.80;99.90;;;;;;5049446;28;20442;-79
2022/01/30 14:24:48;;;;;;;6.90;1.52;;;8.60;99.90;;;;;;5048665;28;20048;-78